createdAt,value
2018-03-11T00:00:07.107Z,94.70
2018-03-11T00:02:34.828Z,94.70
2018-03-11T00:05:02.498Z,94.70
2018-03-11T00:07:30.925Z,94.80
2018-03-11T00:09:58.535Z,94.90
2018-03-11T00:12:26.127Z,94.90
2018-03-11T00:14:53.820Z,95.00
2018-03-11T00:17:21.400Z,95.00
2018-03-11T00:19:50.350Z,95.10
2018-03-11T00:22:18.110Z,95.10
2018-03-11T00:24:45.687Z,95.10
2018-03-11T00:27:13.956Z,95.00
2018-03-11T00:29:41.804Z,95.00
2018-03-11T00:32:09.907Z,95.10
2018-03-11T00:34:37.726Z,95.10
2018-03-11T00:37:05.331Z,95.20
2018-03-11T00:39:33.746Z,95.30
2018-03-11T00:42:01.466Z,95.80
2018-03-11T00:44:29.662Z,95.30
2018-03-11T00:46:57.340Z,95.40
2018-03-11T00:49:24.906Z,95.40
2018-03-11T00:51:52.893Z,95.40
2018-03-11T00:54:21.306Z,95.50
2018-03-11T00:56:51.894Z,95.60
2018-03-11T00:59:19.603Z,95.60
2018-03-11T01:01:48.694Z,95.70
2018-03-11T01:04:16.262Z,95.70
2018-03-11T01:06:43.902Z,95.70
2018-03-11T01:09:11.498Z,95.70
2018-03-11T01:11:39.063Z,95.70
2018-03-11T01:14:06.699Z,95.80
2018-03-11T01:16:34.271Z,95.80
2018-03-11T01:19:01.839Z,95.80
2018-03-11T01:21:29.446Z,95.80
2018-03-11T01:23:57.006Z,95.80
2018-03-11T01:26:24.895Z,95.80
2018-03-11T01:28:52.450Z,95.80
2018-03-11T01:31:20.068Z,95.90
2018-03-11T01:33:47.644Z,95.90
2018-03-11T01:36:15.382Z,95.90
2018-03-11T01:38:42.991Z,95.90
2018-03-11T01:41:10.637Z,95.90
2018-03-11T01:43:38.202Z,95.90
2018-03-11T01:46:05.798Z,95.90
2018-03-11T01:48:33.805Z,95.90
2018-03-11T01:51:02.146Z,95.90
2018-03-11T01:53:29.714Z,95.90
2018-03-11T01:55:57.332Z,95.90
2018-03-11T01:58:24.896Z,95.80
2018-03-11T02:00:52.467Z,95.80
2018-03-11T02:03:20.139Z,95.70
2018-03-11T02:05:47.694Z,95.70
2018-03-11T02:08:15.335Z,95.80
2018-03-11T02:10:42.914Z,95.80
2018-03-11T02:13:11.007Z,95.90
2018-03-11T02:15:38.566Z,95.80
2018-03-11T02:18:06.145Z,95.80
2018-03-11T02:20:33.751Z,95.80
2018-03-11T02:23:01.355Z,95.80
2018-03-11T02:25:28.958Z,95.80
2018-03-11T02:27:56.555Z,95.80
2018-03-11T02:30:24.158Z,95.80
2018-03-11T02:32:51.723Z,95.80
2018-03-11T02:35:19.313Z,95.90
2018-03-11T02:37:47.988Z,96.70
2018-03-11T02:40:15.563Z,96.00
2018-03-11T02:42:43.122Z,95.90
2018-03-11T02:45:10.703Z,95.90
2018-03-11T02:47:38.266Z,95.90
2018-03-11T02:50:06.648Z,95.90
2018-03-11T02:52:34.222Z,95.90
2018-03-11T02:55:02.262Z,96.00
2018-03-11T02:57:30.592Z,95.90
2018-03-11T02:59:58.162Z,95.80
2018-03-11T03:02:25.741Z,95.70
2018-03-11T03:04:53.323Z,95.70
2018-03-11T03:07:20.919Z,95.60
2018-03-11T03:09:48.511Z,95.60
2018-03-11T03:12:16.084Z,95.60
2018-03-11T03:14:43.658Z,95.60
2018-03-11T03:17:11.530Z,95.70
2018-03-11T03:19:39.131Z,95.70
2018-03-11T03:22:07.459Z,95.80
2018-03-11T03:24:35.034Z,95.80
2018-03-11T03:27:02.613Z,95.80
2018-03-11T03:29:30.203Z,95.90
2018-03-11T03:31:58.619Z,96.00
2018-03-11T03:34:26.223Z,96.00
2018-03-11T03:36:53.802Z,96.00
2018-03-11T03:39:21.755Z,96.00
2018-03-11T03:41:49.471Z,96.00
2018-03-11T03:44:17.595Z,96.00
2018-03-11T03:46:45.200Z,96.10
2018-03-11T03:49:12.807Z,96.00
2018-03-11T03:51:40.375Z,96.00
2018-03-11T03:54:08.675Z,96.00
2018-03-11T03:56:36.315Z,96.00
2018-03-11T03:59:03.871Z,95.90
2018-03-11T04:01:31.467Z,95.90
2018-03-11T04:03:59.394Z,95.90
2018-03-11T04:06:26.993Z,95.90
2018-03-11T04:08:54.543Z,96.00
2018-03-11T04:11:22.604Z,96.00
2018-03-11T04:13:51.103Z,96.00
2018-03-11T04:16:18.659Z,95.90
2018-03-11T04:18:46.243Z,95.90
2018-03-11T04:21:14.016Z,95.80
2018-03-11T04:23:42.348Z,95.80
2018-03-11T04:26:09.926Z,96.00
2018-03-11T04:28:38.119Z,95.70
2018-03-11T04:31:05.703Z,95.70
2018-03-11T04:33:33.260Z,95.70
2018-03-11T04:36:01.621Z,95.90
2018-03-11T04:38:29.828Z,95.70
2018-03-11T04:40:58.187Z,95.80
2018-03-11T04:43:25.780Z,95.60
2018-03-11T04:45:54.126Z,95.60
2018-03-11T04:48:21.711Z,95.60
2018-03-11T04:50:50.032Z,95.50
2018-03-11T04:53:17.621Z,95.50
2018-03-11T04:55:45.219Z,95.60
2018-03-11T04:58:12.798Z,95.60
2018-03-11T05:00:40.396Z,95.60
2018-03-11T05:03:07.983Z,95.70
2018-03-11T05:05:35.686Z,95.70
2018-03-11T05:08:03.293Z,95.70
2018-03-11T05:10:30.868Z,95.70
2018-03-11T05:12:59.951Z,95.70
2018-03-11T05:15:27.947Z,95.70
2018-03-11T05:17:55.508Z,95.70
2018-03-11T05:20:24.605Z,95.90
2018-03-11T05:22:52.186Z,95.70
2018-03-11T05:25:20.535Z,96.00
2018-03-11T05:27:48.099Z,95.80
2018-03-11T05:30:15.695Z,95.80
2018-03-11T05:32:43.300Z,95.80
2018-03-11T05:35:10.864Z,95.70
2018-03-11T05:37:39.103Z,95.70
2018-03-11T05:40:07.456Z,95.70
2018-03-11T05:42:36.128Z,95.70
2018-03-11T05:45:03.763Z,95.70
2018-03-11T05:47:31.574Z,95.70
2018-03-11T05:49:59.134Z,95.70
2018-03-11T05:52:26.711Z,95.60
2018-03-11T05:54:54.303Z,95.60
2018-03-11T05:57:21.866Z,95.60
2018-03-11T06:00:00.630Z,95.60
2018-03-11T06:02:28.217Z,95.60
2018-03-11T06:04:55.811Z,95.60
2018-03-11T06:07:24.164Z,95.60
2018-03-11T06:09:51.743Z,95.60
2018-03-11T06:12:20.630Z,95.60
2018-03-11T06:14:48.199Z,95.50
2018-03-11T06:17:15.758Z,95.60
2018-03-11T06:19:43.385Z,95.60
2018-03-11T06:22:10.969Z,95.60
2018-03-11T06:24:38.548Z,95.60
2018-03-11T06:27:06.904Z,95.90
2018-03-11T06:29:34.471Z,95.70
2018-03-11T06:32:02.039Z,95.70
2018-03-11T06:34:30.771Z,95.80
2018-03-11T06:36:58.378Z,95.70
2018-03-11T06:39:25.954Z,95.80
2018-03-11T06:41:53.538Z,95.80
2018-03-11T06:44:21.889Z,95.80
2018-03-11T06:46:49.461Z,95.80
2018-03-11T06:49:17.022Z,95.80
2018-03-11T06:51:44.631Z,95.90
2018-03-11T06:54:12.194Z,95.90
2018-03-11T06:56:39.762Z,95.90
2018-03-11T06:59:07.361Z,95.90
2018-03-11T07:01:35.107Z,95.90
2018-03-11T07:04:02.690Z,95.90
2018-03-11T07:06:30.590Z,95.90
2018-03-11T07:08:58.166Z,95.90
2018-03-11T07:11:26.522Z,95.90
2018-03-11T07:13:54.606Z,95.90
2018-03-11T07:16:22.963Z,96.00
2018-03-11T07:18:50.527Z,95.80
2018-03-11T07:21:18.132Z,95.90
2018-03-11T07:23:45.832Z,95.80
2018-03-11T07:26:13.388Z,95.80
2018-03-11T07:28:41.022Z,95.80
2018-03-11T07:31:09.449Z,95.80
2018-03-11T07:33:37.019Z,95.80
2018-03-11T07:36:04.583Z,95.80
2018-03-11T07:38:32.166Z,95.70
2018-03-11T07:40:59.739Z,95.70
2018-03-11T07:43:27.950Z,95.60
2018-03-11T07:45:55.538Z,95.40
2018-03-11T07:48:23.106Z,95.20
2018-03-11T07:50:50.698Z,95.20
2018-03-11T07:53:18.283Z,95.20
2018-03-11T07:55:47.222Z,95.20
2018-03-11T07:58:14.826Z,95.20
2018-03-11T08:00:43.174Z,95.10
2018-03-11T08:03:10.786Z,95.10
2018-03-11T08:05:38.649Z,95.00
2018-03-11T08:08:06.394Z,94.80
2018-03-11T08:10:33.983Z,94.70
2018-03-11T08:13:02.343Z,94.50
2018-03-11T08:15:30.739Z,94.50
2018-03-11T08:17:58.328Z,94.60
2018-03-11T08:20:26.622Z,94.50
2018-03-11T08:22:54.193Z,94.50
2018-03-11T08:25:21.786Z,94.30
2018-03-11T08:27:50.086Z,94.40
2018-03-11T08:30:18.410Z,94.30
2018-03-11T08:32:46.220Z,94.30
2018-03-11T08:35:14.408Z,94.20
2018-03-11T08:37:41.976Z,94.00
2018-03-11T08:40:10.306Z,93.80
2018-03-11T08:42:37.915Z,93.80
2018-03-11T08:45:06.340Z,93.40
2018-03-11T08:47:33.925Z,93.40
2018-03-11T08:50:02.303Z,93.10
2018-03-11T08:52:31.468Z,92.40
2018-03-11T08:54:59.566Z,92.40
2018-03-11T08:57:29.469Z,92.40
2018-03-11T08:59:58.014Z,91.90
2018-03-11T09:02:25.609Z,91.70
2018-03-11T09:04:53.289Z,91.40
2018-03-11T09:07:20.878Z,90.50
2018-03-11T09:09:48.475Z,90.50
2018-03-11T09:12:16.092Z,88.30
2018-03-11T09:14:43.694Z,88.50
2018-03-11T09:17:11.254Z,88.50
2018-03-11T09:19:39.616Z,86.00
2018-03-11T09:22:07.417Z,85.60
2018-03-11T09:24:35.092Z,83.30
2018-03-11T09:27:03.728Z,81.90
2018-03-11T09:29:32.127Z,80.00
2018-03-11T09:32:00.194Z,79.90
2018-03-11T09:34:27.772Z,80.70
2018-03-11T09:36:55.613Z,80.60
2018-03-11T09:39:23.990Z,80.30
2018-03-11T09:41:51.698Z,79.10
2018-03-11T09:44:20.013Z,78.80
2018-03-11T09:46:48.126Z,77.80
2018-03-11T09:49:15.823Z,77.40
2018-03-11T09:51:44.686Z,77.60
2018-03-11T09:54:12.578Z,75.80
2018-03-11T09:56:41.057Z,76.10
2018-03-11T09:59:10.162Z,76.10
2018-03-11T10:01:38.235Z,75.30
2018-03-11T10:04:07.118Z,74.90
2018-03-11T10:06:35.428Z,74.90
2018-03-11T10:09:03.051Z,75.00
2018-03-11T10:11:31.810Z,74.70
2018-03-11T10:14:00.590Z,74.80
2018-03-11T10:16:28.168Z,75.60
2018-03-11T10:18:55.758Z,75.10
2018-03-11T10:21:23.362Z,76.20
2018-03-11T10:23:50.940Z,75.80
2018-03-11T10:26:19.275Z,76.20
2018-03-11T10:28:47.020Z,75.80
2018-03-11T10:31:14.590Z,75.30
2018-03-11T10:33:42.190Z,75.60
2018-03-11T10:36:10.527Z,75.40
2018-03-11T10:38:38.131Z,75.40
2018-03-11T10:41:05.722Z,75.50
2018-03-11T10:43:33.958Z,75.40
2018-03-11T10:46:02.299Z,73.60
2018-03-11T10:48:29.879Z,73.50
2018-03-11T10:50:57.499Z,71.60
2018-03-11T10:53:25.092Z,69.90
2018-03-11T10:55:52.694Z,70.30
2018-03-11T10:58:20.272Z,70.10
2018-03-11T11:00:53.033Z,71.90
2018-03-11T11:03:26.870Z,72.70
2018-03-11T11:05:54.497Z,72.30
2018-03-11T11:08:22.168Z,71.90
2018-03-11T11:10:49.707Z,71.70
2018-03-11T11:13:17.268Z,70.80
2018-03-11T11:15:44.865Z,70.60
2018-03-11T11:18:12.432Z,70.30
2018-03-11T11:20:40.060Z,70.00
2018-03-11T11:23:08.235Z,69.80
2018-03-11T11:25:35.855Z,70.80
2018-03-11T11:28:03.418Z,72.40
2018-03-11T11:30:31.023Z,72.00
2018-03-11T11:32:58.582Z,71.10
2018-03-11T11:35:26.171Z,70.90
2018-03-11T11:37:53.749Z,70.20
2018-03-11T11:40:21.326Z,68.30
2018-03-11T11:42:48.942Z,67.70
2018-03-11T11:45:16.534Z,67.40
2018-03-11T11:47:44.907Z,65.70
2018-03-11T11:50:12.832Z,65.50
2018-03-11T11:52:40.645Z,64.30
2018-03-11T11:55:09.252Z,64.10
2018-03-11T11:57:37.190Z,63.40
2018-03-11T12:00:05.174Z,63.70
2018-03-11T12:02:33.492Z,61.30
2018-03-11T12:05:01.087Z,60.80
2018-03-11T12:07:28.729Z,59.70
2018-03-11T12:09:56.360Z,60.20
2018-03-11T12:12:23.934Z,61.20
2018-03-11T12:14:52.272Z,60.80
2018-03-11T12:17:19.910Z,60.80
2018-03-11T12:19:47.503Z,61.60
2018-03-11T12:22:15.083Z,61.80
2018-03-11T12:24:43.763Z,62.40
2018-03-11T12:27:11.849Z,61.60
2018-03-11T12:29:39.423Z,61.20
2018-03-11T12:32:08.287Z,58.80
2018-03-11T12:34:35.924Z,58.80
2018-03-11T12:37:03.485Z,58.10
2018-03-11T12:39:31.181Z,58.90
2018-03-11T12:41:58.766Z,59.20
2018-03-11T12:44:27.128Z,59.50
2018-03-11T12:46:55.368Z,59.50
2018-03-11T12:49:22.979Z,59.90
2018-03-11T12:51:51.355Z,58.60
2018-03-11T12:54:18.969Z,58.60
2018-03-11T12:56:46.583Z,58.00
2018-03-11T12:59:14.785Z,59.70
2018-03-11T13:01:43.157Z,63.00
2018-03-11T13:04:11.494Z,64.10
2018-03-11T13:06:39.054Z,63.60
2018-03-11T13:09:06.888Z,64.20
2018-03-11T13:11:34.448Z,65.80
2018-03-11T13:14:02.255Z,66.90
2018-03-11T13:16:29.879Z,67.10
2018-03-11T13:18:58.390Z,68.20
2018-03-11T13:21:25.966Z,69.70
2018-03-11T13:23:53.540Z,70.90
2018-03-11T13:26:21.122Z,72.90
2018-03-11T13:28:48.737Z,74.00
2018-03-11T13:31:16.614Z,74.70
2018-03-11T13:33:56.554Z,74.10
2018-03-11T13:36:24.198Z,75.60
2018-03-11T13:39:04.078Z,75.70
2018-03-11T13:41:32.579Z,76.30
2018-03-11T13:44:00.194Z,76.30
2018-03-11T13:46:39.638Z,76.60
2018-03-11T13:49:07.359Z,76.40
2018-03-11T13:54:38.390Z,74.70
2018-03-11T14:00:24.391Z,75.30
2018-03-11T14:02:52.991Z,76.40
2018-03-11T14:05:20.565Z,77.20
2018-03-11T14:07:48.155Z,77.10
2018-03-11T14:10:16.248Z,77.50
2018-03-11T14:12:43.838Z,78.00
2018-03-11T14:15:11.982Z,77.60
2018-03-11T14:17:39.603Z,78.10
2018-03-11T14:20:07.214Z,78.20
2018-03-11T14:22:35.097Z,78.30
2018-03-11T14:25:03.550Z,78.50
2018-03-11T14:27:32.498Z,78.50
2018-03-11T14:30:00.091Z,78.30
2018-03-11T14:32:27.746Z,79.00
2018-03-11T14:34:56.610Z,78.90
2018-03-11T14:37:24.202Z,79.10
2018-03-11T14:39:52.437Z,79.00
2018-03-11T14:42:21.937Z,79.70
2018-03-11T14:44:50.326Z,79.70
2018-03-11T14:47:18.752Z,80.20
2018-03-11T14:49:46.335Z,80.10
2018-03-11T14:52:15.804Z,81.20
2018-03-11T14:54:43.719Z,81.70
2018-03-11T14:57:11.304Z,83.00
2018-03-11T14:59:40.483Z,83.60
2018-03-11T15:02:08.096Z,83.60
2018-03-11T15:04:35.776Z,84.30
2018-03-11T15:07:03.807Z,84.60
2018-03-11T15:09:32.139Z,85.80
2018-03-11T15:11:59.710Z,85.80
2018-03-11T15:14:27.307Z,86.50
2018-03-11T15:16:54.905Z,86.90
2018-03-11T15:19:22.485Z,87.90
2018-03-11T15:21:50.110Z,88.40
2018-03-11T15:24:18.471Z,89.50
2018-03-11T15:26:47.567Z,90.30
2018-03-11T15:29:16.177Z,90.00
2018-03-11T15:31:44.531Z,90.30
2018-03-11T15:34:12.264Z,90.30
2018-03-11T15:36:41.057Z,90.60
2018-03-11T15:39:08.673Z,90.80
2018-03-11T15:41:37.040Z,91.00
2018-03-11T15:44:05.924Z,91.00
2018-03-11T15:46:33.515Z,91.10
2018-03-11T15:49:02.020Z,91.30
2018-03-11T15:51:29.983Z,91.50
2018-03-11T15:53:57.596Z,91.40
2018-03-11T15:56:25.444Z,91.40
2018-03-11T15:58:53.810Z,91.70
2018-03-11T16:01:22.168Z,91.60
2018-03-11T16:03:50.519Z,91.70
2018-03-11T16:06:20.757Z,92.10
2018-03-11T16:08:48.974Z,91.90
2018-03-11T16:11:16.538Z,91.90
2018-03-11T16:13:44.142Z,92.10
2018-03-11T16:16:11.791Z,92.10
2018-03-11T16:18:39.391Z,92.20
2018-03-11T16:21:07.001Z,92.30
2018-03-11T16:23:35.641Z,92.30
2018-03-11T16:26:03.208Z,92.40
2018-03-11T16:28:30.778Z,92.40
2018-03-11T16:30:58.857Z,92.50
2018-03-11T16:33:26.633Z,92.50
2018-03-11T16:35:54.259Z,92.50
2018-03-11T16:38:21.862Z,92.50
2018-03-11T16:40:49.459Z,92.60
2018-03-11T16:43:17.046Z,92.60
2018-03-11T16:45:44.624Z,92.70
2018-03-11T16:48:12.583Z,92.70
2018-03-11T16:50:40.239Z,92.80
2018-03-11T16:53:07.888Z,92.70
2018-03-11T16:55:35.478Z,92.80
2018-03-11T16:58:05.099Z,92.50
2018-03-11T17:00:32.666Z,92.50
2018-03-11T17:03:00.247Z,92.30
2018-03-11T17:05:28.622Z,92.70
2018-03-11T17:07:58.830Z,92.80
2018-03-11T17:10:26.433Z,92.80
2018-03-11T17:12:54.055Z,92.90
2018-03-11T17:15:21.655Z,93.00
2018-03-11T17:17:50.054Z,93.10
2018-03-11T17:20:17.706Z,93.00
2018-03-11T17:22:45.286Z,93.00
2018-03-11T17:25:12.893Z,93.00
2018-03-11T17:27:40.631Z,93.00
2018-03-11T17:30:08.614Z,93.10
2018-03-11T17:35:17.037Z,93.40
2018-03-11T17:37:45.646Z,93.40
2018-03-11T17:40:13.338Z,93.40
2018-03-11T17:42:43.000Z,93.40
2018-03-11T17:45:10.738Z,93.50
2018-03-11T17:47:38.806Z,93.40
2018-03-11T17:50:06.386Z,93.50
2018-03-11T17:52:35.552Z,93.40
2018-03-11T17:55:04.716Z,93.40
2018-03-11T17:57:32.889Z,93.40
2018-03-11T18:00:02.145Z,93.40
2018-03-11T18:02:31.640Z,93.30
2018-03-11T18:04:59.234Z,93.40
2018-03-11T18:07:27.133Z,93.30
2018-03-11T18:09:55.330Z,93.20
2018-03-11T18:12:22.914Z,93.20
2018-03-11T18:14:51.280Z,93.20
2018-03-11T18:17:18.932Z,93.20
2018-03-11T18:19:47.779Z,93.10
2018-03-11T18:22:16.046Z,93.20
2018-03-11T18:24:43.705Z,93.20
2018-03-11T18:27:11.499Z,93.30
2018-03-11T18:29:39.127Z,93.30
2018-03-11T18:32:06.909Z,93.20
2018-03-11T18:34:34.696Z,93.10
2018-03-11T18:37:02.276Z,93.10
2018-03-11T18:39:29.857Z,93.10
2018-03-11T18:41:57.461Z,93.00
2018-03-11T18:44:25.027Z,92.90
2018-03-11T18:46:53.367Z,92.80
2018-03-11T18:49:20.974Z,92.90
2018-03-11T18:51:48.545Z,92.90
2018-03-11T18:54:16.163Z,92.80
2018-03-11T18:56:43.725Z,92.90
2018-03-11T18:59:11.327Z,92.90
2018-03-11T19:01:39.684Z,92.80
2018-03-11T19:04:08.076Z,92.90
2018-03-11T19:06:35.643Z,92.90
2018-03-11T19:09:03.392Z,93.00
2018-03-11T19:11:30.963Z,93.10
2018-03-11T19:13:59.304Z,93.20
2018-03-11T19:16:26.907Z,93.20
2018-03-11T19:18:55.488Z,93.20
2018-03-11T19:21:23.588Z,93.20
2018-03-11T19:23:51.212Z,93.30
2018-03-11T19:26:18.774Z,93.80
2018-03-11T19:28:46.949Z,93.90
2018-03-11T19:31:14.517Z,93.90
2018-03-11T19:33:42.122Z,94.00
2018-03-11T19:36:09.717Z,93.90
2018-03-11T19:38:37.340Z,94.00
2018-03-11T19:41:06.131Z,94.10
2018-03-11T19:43:33.710Z,94.10
2018-03-11T19:46:01.301Z,94.10
2018-03-11T19:48:28.896Z,94.10
2018-03-11T19:50:56.514Z,94.20
2018-03-11T19:53:24.487Z,94.20
2018-03-11T19:55:52.055Z,94.10
2018-03-11T19:58:19.627Z,94.10
2018-03-11T20:00:47.242Z,94.10
2018-03-11T20:03:14.855Z,94.00
2018-03-11T20:05:42.450Z,94.00
2018-03-11T20:08:10.054Z,94.00
2018-03-11T20:10:37.671Z,93.90
2018-03-11T20:13:07.122Z,93.80
2018-03-11T20:15:34.702Z,93.80
2018-03-11T20:18:02.322Z,93.70
2018-03-11T20:20:29.907Z,93.70
2018-03-11T20:22:57.503Z,93.70
2018-03-11T20:25:25.153Z,93.70
2018-03-11T20:27:52.747Z,93.70
2018-03-11T20:30:21.025Z,93.70
2018-03-11T20:32:49.382Z,93.70
2018-03-11T20:35:18.295Z,93.60
2018-03-11T20:37:45.896Z,93.50
2018-03-11T20:40:13.477Z,93.40
2018-03-11T20:42:41.097Z,93.40
2018-03-11T20:45:08.710Z,93.30
2018-03-11T20:47:36.645Z,93.30
2018-03-11T20:50:04.786Z,93.30
2018-03-11T20:52:32.358Z,93.30
2018-03-11T20:54:59.941Z,93.30
2018-03-11T20:57:31.700Z,93.20
2018-03-11T21:00:00.572Z,93.40
2018-03-11T21:02:29.140Z,93.10
2018-03-11T21:04:56.705Z,93.10
2018-03-11T21:07:25.659Z,93.10
2018-03-11T21:09:53.390Z,93.10
2018-03-11T21:12:22.077Z,93.10
2018-03-11T21:14:49.668Z,93.10
2018-03-11T21:17:17.279Z,93.10
2018-03-11T21:19:46.202Z,93.10
2018-03-11T21:22:14.447Z,93.10
2018-03-11T21:24:42.045Z,93.10
2018-03-11T21:27:13.002Z,93.00
2018-03-11T21:29:41.275Z,93.00
2018-03-11T21:32:10.415Z,93.10
2018-03-11T21:34:38.148Z,93.10
2018-03-11T21:37:06.658Z,93.20
2018-03-11T21:39:34.325Z,93.30
2018-03-11T21:42:02.235Z,93.30
2018-03-11T21:44:29.843Z,93.40
2018-03-11T21:46:57.432Z,93.20
2018-03-11T21:49:25.635Z,93.80
2018-03-11T21:51:53.222Z,93.60
2018-03-11T21:54:20.894Z,93.60
2018-03-11T21:56:49.155Z,93.70
2018-03-11T21:59:16.937Z,93.80
2018-03-11T22:01:44.567Z,93.90
2018-03-11T22:04:12.617Z,93.90
2018-03-11T22:06:40.194Z,93.80
2018-03-11T22:09:07.760Z,94.00
2018-03-11T22:11:35.348Z,94.10
2018-03-11T22:14:02.935Z,94.10
2018-03-11T22:16:31.330Z,94.20
2018-03-11T22:18:58.918Z,94.20
2018-03-11T22:21:26.518Z,94.30
2018-03-11T22:23:55.972Z,94.40
2018-03-11T22:26:23.543Z,94.30
2018-03-11T22:28:51.781Z,94.40
2018-03-11T22:31:20.130Z,94.60
2018-03-11T22:33:47.958Z,94.50
2018-03-11T22:36:15.549Z,94.60
2018-03-11T22:38:43.210Z,94.60
2018-03-11T22:41:10.770Z,94.60
2018-03-11T22:43:38.350Z,94.70
2018-03-11T22:46:05.985Z,94.80
2018-03-11T22:48:36.036Z,94.80
2018-03-11T22:51:03.801Z,94.90
2018-03-11T22:53:32.218Z,95.20
2018-03-11T22:55:59.820Z,95.00
2018-03-11T22:58:27.441Z,95.00
2018-03-11T23:00:55.815Z,95.20
2018-03-11T23:03:23.399Z,95.10
2018-03-11T23:05:52.115Z,95.20
2018-03-11T23:08:19.764Z,95.20
2018-03-11T23:10:47.327Z,95.30
2018-03-11T23:13:14.928Z,95.20
2018-03-11T23:15:42.531Z,95.30
2018-03-11T23:18:10.103Z,95.40
2018-03-11T23:20:38.696Z,95.40
2018-03-11T23:23:06.749Z,95.40
2018-03-11T23:25:36.043Z,95.50
2018-03-11T23:28:03.807Z,95.70
2018-03-11T23:30:32.287Z,95.50
2018-03-11T23:32:59.981Z,95.50
2018-03-11T23:35:30.111Z,95.60
2018-03-11T23:37:58.118Z,95.60
2018-03-11T23:40:26.830Z,95.70
2018-03-11T23:42:54.438Z,95.70
2018-03-11T23:45:22.766Z,95.70
2018-03-11T23:47:51.210Z,95.70
2018-03-11T23:50:20.002Z,95.90
2018-03-11T23:52:47.613Z,95.90
2018-03-11T23:55:15.675Z,95.90
2018-03-11T23:57:43.270Z,96.00
